Time;durP1;ratioP1;P1;durP2;ratioP2;P2;SDS_P1;SDS_P2;PMS_P1;PMS_P2;Temp;Humidity;BMP_temperature;BMP_pressure;BME280_temperature;BME280_humidity;BME280_pressure;Samples;Min_cycle;Max_cycle;Signal;HPM_P1;HPM_P2
2021/03/10 00:00:53;;;;;;;28.10;17.85;;;;;;;5.83;57.49;94878.88;5093881;28;20256;-71
2021/03/10 00:03:20;;;;;;;27.35;17.90;;;;;;;5.84;57.72;94864.84;5103282;28;20211;-69
2021/03/10 00:05:46;;;;;;;27.40;18.13;;;;;;;5.76;57.68;94872.97;5092444;28;20299;-73
2021/03/10 00:08:13;;;;;;;27.15;18.67;;;;;;;5.70;57.90;94863.47;5102090;28;20198;-68
2021/03/10 00:10:39;;;;;;;31.65;19.42;;;;;;;5.77;57.77;94869.34;5111899;28;20221;-72
2021/03/10 00:13:08;;;;;;;28.45;18.88;;;;;;;5.90;57.37;94861.34;5103910;28;20198;-69
2021/03/10 00:15:35;;;;;;;25.33;18.55;;;;;;;6.09;56.97;94855.03;5091809;28;20286;-70
2021/03/10 00:18:02;;;;;;;25.33;19.30;;;;;;;5.92;56.97;94857.53;5104502;28;20690;-71
2021/03/10 00:20:28;;;;;;;33.25;20.20;;;;;;;5.63;57.71;94839.41;5092732;28;20202;-71
2021/03/10 00:22:55;;;;;;;25.65;18.67;;;;;;;5.78;58.08;94861.34;5104159;28;20193;-70
2021/03/10 00:25:21;;;;;;;29.75;20.23;;;;;;;5.74;57.96;94851.63;5092480;28;20283;-73
2021/03/10 00:27:48;;;;;;;28.77;21.23;;;;;;;5.83;58.12;94832.09;5104322;28;20198;-72
2021/03/10 00:30:16;;;;;;;30.55;20.38;;;;;;;5.89;58.02;94833.78;5092794;28;20225;-70
2021/03/10 00:32:42;;;;;;;31.02;21.15;;;;;;;5.87;58.06;94833.22;5104174;28;20253;-69
2021/03/10 00:35:28;;;;;;;34.40;22.30;;;;;;;5.86;58.33;94826.41;5092322;28;20213;-75
2021/03/10 00:38:01;;;;;;;33.80;22.63;;;;;;;5.73;58.52;94822.22;5104454;28;20220;-73
2021/03/10 00:40:28;;;;;;;33.92;22.70;;;;;;;5.95;57.85;94814.66;5092572;28;20203;-70
2021/03/10 00:42:55;;;;;;;42.35;24.50;;;;;;;5.84;58.53;94815.44;5105629;28;20190;-72
2021/03/10 00:45:22;;;;;;;33.42;22.23;;;;;;;5.83;58.80;94809.47;5092584;28;20187;-75
2021/03/10 00:47:48;;;;;;;36.60;23.70;;;;;;;5.60;59.50;94806.09;5103773;28;20217;-72
2021/03/10 00:50:20;;;;;;;34.08;22.60;;;;;;;5.75;59.43;94819.38;5092147;28;20196;-70
2021/03/10 00:52:46;;;;;;;31.52;22.48;;;;;;;5.54;60.09;94822.56;5103489;28;20625;-73
2021/03/10 00:55:13;;;;;;;37.10;24.40;;;;;;;5.62;60.16;94810.00;5091725;28;20202;-73
2021/03/10 00:57:40;;;;;;;34.85;24.90;;;;;;;5.70;60.16;94806.28;5103541;28;20255;-74
2021/03/10 01:00:07;;;;;;;33.63;23.85;;;;;;;5.60;60.05;94800.88;5091587;28;20202;-71
2021/03/10 01:02:33;;;;;;;34.00;24.63;;;;;;;5.55;60.42;94798.94;5103101;28;20194;-75
2021/03/10 01:05:00;;;;;;;33.33;23.23;;;;;;;5.66;60.36;94805.16;5091496;28;20235;-72
2021/03/10 01:07:26;;;;;;;38.15;24.73;;;;;;;5.64;60.26;94799.41;5101556;28;20194;-71
2021/03/10 01:09:53;;;;;;;36.10;24.75;;;;;;;5.40;60.96;94790.03;5093058;28;20203;-69
2021/03/10 01:12:19;;;;;;;41.17;24.88;;;;;;;5.47;61.20;94780.31;5100132;28;20222;-71
2021/03/10 01:14:46;;;;;;;34.25;24.35;;;;;;;5.52;61.47;94783.00;5093762;28;20752;-68
2021/03/10 01:17:12;;;;;;;39.38;25.30;;;;;;;5.42;61.45;94767.97;5099348;28;20209;-71
2021/03/10 01:19:39;;;;;;;35.33;25.75;;;;;;;5.44;61.83;94770.38;5095158;28;20192;-70
2021/03/10 01:22:06;;;;;;;39.25;26.55;;;;;;;5.51;62.28;94778.84;5098364;28;20531;-72
2021/03/10 01:24:33;;;;;;;43.78;27.63;;;;;;;5.40;62.52;94769.25;5095896;28;20274;-74
2021/03/10 01:26:59;;;;;;;38.97;27.73;;;;;;;5.42;62.56;94772.41;5097614;28;20291;-69
2021/03/10 01:29:26;;;;;;;39.85;27.02;;;;;;;5.28;63.00;94779.63;5096983;28;20230;-68
2021/03/10 01:31:52;;;;;;;41.05;28.00;;;;;;;5.38;63.47;94781.66;5096333;28;20221;-71
2021/03/10 01:34:19;;;;;;;38.58;27.33;;;;;;;5.37;63.61;94790.47;5098025;28;20206;-73
2021/03/10 01:36:45;;;;;;;40.42;27.45;;;;;;;5.38;63.51;94781.66;5095001;28;20618;-72
2021/03/10 01:39:12;;;;;;;42.30;27.17;;;;;;;5.40;63.42;94785.59;5098803;28;20204;-72
2021/03/10 01:41:39;;;;;;;39.28;27.23;;;;;;;5.38;63.55;94779.06;5093790;28;20617;-69
2021/03/10 01:44:05;;;;;;;40.10;26.77;;;;;;;5.33;64.06;94784.16;5099547;28;20576;-72
2021/03/10 01:46:42;;;;;;;39.97;27.88;;;;;;;5.40;64.30;94769.25;5092999;28;20198;-71
2021/03/10 01:49:09;;;;;;;41.75;26.88;;;;;;;5.42;64.14;94777.59;5104316;28;20214;-71
2021/03/10 01:51:36;;;;;;;43.08;28.60;;;;;;;5.16;64.67;94764.03;5104687;28;20242;-75
2021/03/10 01:54:03;;;;;;;41.80;27.52;;;;;;;5.32;64.60;94766.97;5100034;28;20202;-74
2021/03/10 01:56:29;;;;;;;42.55;27.92;;;;;;;5.32;64.73;94767.78;5093093;28;20195;-74
2021/03/10 01:58:56;;;;;;;47.17;29.00;;;;;;;5.36;65.29;94755.13;5100340;28;20209;-74
2021/03/10 02:01:22;;;;;;;42.90;27.50;;;;;;;5.31;65.48;94748.00;5092975;28;20199;-76
2021/03/10 02:03:49;;;;;;;42.15;28.60;;;;;;;5.26;65.42;94749.69;5100096;28;20197;-75
2021/03/10 02:06:51;;;;;;;42.50;28.33;;;;;;;5.15;65.64;94736.47;5092363;28;20288;-71
2021/03/10 02:09:28;;;;;;;38.75;28.40;;;;;;;5.12;66.11;94746.53;5104406;28;20309;-73
2021/03/10 02:12:08;;;;;;;42.40;28.42;;;;;;;5.15;66.20;94731.28;5104512;28;20232;-74
2021/03/10 02:15:21;;;;;;;46.08;30.20;;;;;;;5.11;66.75;94727.56;5094850;28;20202;-72
2021/03/10 02:17:54;;;;;;;45.30;28.15;;;;;;;5.12;66.59;94742.13;5046114;28;20627;-71
2021/03/10 02:20:37;;;;;;;42.45;28.48;;;;;;;5.21;66.24;94718.41;5048029;28;20198;-72
2021/03/10 02:23:35;;;;;;;42.38;29.48;;;;;;;5.18;66.73;94720.44;5082410;28;20299;-72
2021/03/10 02:26:36;;;;;;;44.15;28.15;;;;;;;5.04;66.33;94721.69;5108053;28;20309;-69
2021/03/10 02:29:11;;;;;;;53.40;28.98;;;;;;;4.81;67.16;94713.88;5101978;28;20221;-74
2021/03/10 02:31:43;;;;;;;49.78;30.58;;;;;;;4.94;67.07;94721.47;5104086;28;20272;-69
2021/03/10 02:34:11;;;;;;;49.75;29.27;;;;;;;4.89;67.14;94710.94;5098610;28;20294;-71
2021/03/10 02:36:57;;;;;;;51.80;29.58;;;;;;;5.05;67.19;94710.28;5095392;28;20661;-77
2021/03/10 02:39:24;;;;;;;45.25;29.90;;;;;;;5.13;66.63;94702.16;5096231;28;20195;-69
2021/03/10 02:41:52;;;;;;;53.67;31.38;;;;;;;5.04;66.90;94703.50;5094981;28;20293;-75
2021/03/10 02:44:21;;;;;;;47.58;30.10;;;;;;;4.95;67.81;94699.66;5097128;28;20297;-73
2021/03/10 02:46:48;;;;;;;46.60;30.00;;;;;;;4.70;68.32;94703.47;5094284;28;20234;-74
2021/03/10 02:49:16;;;;;;;47.50;30.13;;;;;;;4.95;68.04;94691.88;5097668;28;20207;-74
2021/03/10 02:51:44;;;;;;;51.53;31.60;;;;;;;4.91;68.15;94714.09;5093948;28;20258;-72
2021/03/10 02:54:14;;;;;;;49.92;30.10;;;;;;;4.82;68.76;94693.88;5098273;28;20245;-72
2021/03/10 02:56:43;;;;;;;47.88;29.85;;;;;;;4.79;68.70;94695.16;5093294;28;20199;-69
2021/03/10 02:59:09;;;;;;;47.75;30.60;;;;;;;4.71;69.38;94687.69;5098188;28;20583;-73
2021/03/10 03:01:36;;;;;;;50.53;31.02;;;;;;;4.76;69.48;94687.78;5092136;28;20621;-71
2021/03/10 03:04:02;;;;;;;49.22;30.75;;;;;;;4.79;69.56;94694.34;5102184;28;20247;-69
2021/03/10 03:06:29;;;;;;;50.20;31.48;;;;;;;4.80;69.93;94693.34;5103659;28;20241;-71
2021/03/10 03:08:56;;;;;;;49.88;30.05;;;;;;;4.91;69.22;94682.94;5098105;28;20211;-72
2021/03/10 03:11:23;;;;;;;46.08;29.50;;;;;;;4.81;69.51;94685.34;5091169;28;20222;-74
2021/03/10 03:13:52;;;;;;;46.15;30.25;;;;;;;4.75;69.96;94683.63;5101410;28;20693;-75
2021/03/10 03:16:19;;;;;;;46.20;29.35;;;;;;;4.80;69.57;94681.13;5094868;28;20277;-76
2021/03/10 03:18:45;;;;;;;50.10;30.92;;;;;;;4.68;70.46;94682.94;5101958;28;20195;-71
2021/03/10 03:21:13;;;;;;;48.05;29.58;;;;;;;4.50;70.87;94690.81;5094593;28;20194;-74
2021/03/10 03:23:40;;;;;;;47.72;29.25;;;;;;;4.51;70.97;94671.63;5101821;28;20191;-73
2021/03/10 03:26:07;;;;;;;46.67;30.08;;;;;;;4.65;70.92;94688.56;5094307;28;20187;-72
2021/03/10 03:28:35;;;;;;;48.35;29.63;;;;;;;4.63;70.71;94677.66;5102228;28;20195;-70
2021/03/10 03:31:03;;;;;;;49.20;29.70;;;;;;;4.83;70.22;94690.28;5094221;28;20310;-72
2021/03/10 03:33:30;;;;;;;46.13;28.67;;;;;;;4.72;70.01;94678.91;5093155;28;20553;-71
2021/03/10 03:35:58;;;;;;;45.92;27.95;;;;;;;4.82;69.85;94689.50;5091996;28;20252;-75
2021/03/10 03:38:26;;;;;;;45.38;28.52;;;;;;;4.73;69.79;94683.06;5092532;28;20195;-70
2021/03/10 03:40:54;;;;;;;49.42;28.77;;;;;;;4.61;70.75;94687.44;5091594;28;20278;-74
2021/03/10 03:43:24;;;;;;;47.95;29.80;;;;;;;4.73;70.20;94687.44;5092613;28;20202;-74
2021/03/10 03:45:52;;;;;;;46.63;27.27;;;;;;;4.65;69.93;94688.56;5091096;28;20595;-74
2021/03/10 03:48:21;;;;;;;48.88;29.48;;;;;;;4.72;69.88;94689.28;5092259;28;20599;-72
2021/03/10 03:50:48;;;;;;;47.55;27.73;;;;;;;4.81;69.67;94672.34;5091551;28;20278;-71
2021/03/10 03:53:15;;;;;;;44.65;26.10;;;;;;;4.82;69.45;94679.13;5092052;28;20191;-73
2021/03/10 03:55:43;;;;;;;40.47;25.40;;;;;;;4.64;70.38;94675.81;5091465;28;20191;-74
2021/03/10 03:58:09;;;;;;;41.75;24.95;;;;;;;4.44;70.55;94652.78;5092048;28;20187;-71
2021/03/10 04:00:36;;;;;;;41.78;25.45;;;;;;;4.66;70.57;94674.59;5091490;28;20191;-70
2021/03/10 04:03:03;;;;;;;38.47;23.80;;;;;;;4.71;70.26;94677.28;5103405;28;20207;-71
2021/03/10 04:05:30;;;;;;;39.90;25.57;;;;;;;4.69;70.07;94663.75;5069909;28;632706;-71
2021/03/10 04:08:08;;;;;;;35.05;23.85;;;;;;;4.69;70.19;94683.75;5104424;28;20281;-75
2021/03/10 04:10:37;;;;;;;36.72;23.70;;;;;;;4.70;70.84;94683.50;5092807;28;20276;-72
2021/03/10 04:13:03;;;;;;;40.28;26.25;;;;;;;4.86;70.05;94669.88;5101687;28;20694;-73
2021/03/10 04:15:32;;;;;;;39.72;26.48;;;;;;;4.82;69.91;94673.91;5113237;28;20886;-73
2021/03/10 04:17:59;;;;;;;41.65;27.23;;;;;;;4.69;70.65;94658.56;5101452;28;20285;-75
2021/03/10 04:20:25;;;;;;;42.08;27.45;;;;;;;4.82;70.00;94658.34;5113315;28;20577;-72
2021/03/10 04:22:52;;;;;;;45.72;28.20;;;;;;;4.80;70.15;94668.16;5099895;28;20195;-73
2021/03/10 04:25:19;;;;;;;43.17;26.60;;;;;;;4.73;70.56;94669.28;5113401;28;20217;-70
2021/03/10 04:27:46;;;;;;;44.80;27.30;;;;;;;4.79;70.10;94658.81;5105477;28;20202;-71
2021/03/10 04:30:13;;;;;;;43.47;28.15;;;;;;;4.78;70.35;94652.03;5092879;28;20681;-68
2021/03/10 04:32:40;;;;;;;47.40;28.73;;;;;;;4.87;70.21;94661.06;5103882;28;20226;-74
2021/03/10 04:35:08;;;;;;;44.40;28.90;;;;;;;4.79;70.62;94658.81;5093003;28;20715;-71
2021/03/10 04:37:35;;;;;;;49.88;28.52;;;;;;;4.77;70.44;94642.66;5102807;28;20210;-76
2021/03/10 04:40:03;;;;;;;45.95;27.95;;;;;;;4.63;70.78;94659.47;5092876;28;20202;-73
2021/03/10 04:42:30;;;;;;;45.10;27.83;;;;;;;4.72;70.66;94658.13;5102090;28;20298;-72
2021/03/10 04:44:57;;;;;;;47.20;29.27;;;;;;;4.67;70.66;94644.25;5093586;28;20203;-75
2021/03/10 04:47:23;;;;;;;45.53;28.50;;;;;;;4.64;70.68;94650.66;5101608;28;20209;-71
2021/03/10 04:49:50;;;;;;;43.83;28.77;;;;;;;4.54;71.07;94660.81;5099764;28;20250;-69
2021/03/10 04:52:20;;;;;;;46.95;29.50;;;;;;;4.75;70.71;94647.28;5105841;28;20280;-74
2021/03/10 04:54:47;;;;;;;44.95;29.05;;;;;;;4.92;70.24;94648.22;5095162;28;20218;-72
2021/03/10 04:57:13;;;;;;;46.55;28.77;;;;;;;4.83;70.69;94654.75;5099265;28;20351;-73
2021/03/10 04:59:40;;;;;;;46.38;29.17;;;;;;;4.98;70.10;94654.31;5097866;28;20194;-69
2021/03/10 05:02:06;;;;;;;48.55;30.45;;;;;;;4.85;70.60;94646.75;5101624;28;20199;-72
2021/03/10 05:04:33;;;;;;;47.22;30.92;;;;;;;4.80;70.43;94644.81;5098399;28;20199;-72
2021/03/10 05:06:59;;;;;;;51.67;31.10;;;;;;;4.68;70.68;94636.22;5091912;28;20725;-71
2021/03/10 05:09:26;;;;;;;49.38;30.67;;;;;;;4.94;70.96;94653.16;5092152;28;20195;-72
2021/03/10 05:11:52;;;;;;;50.22;30.23;;;;;;;4.96;71.02;94641.53;5092013;28;20215;-68
2021/03/10 05:14:19;;;;;;;45.80;28.55;;;;;;;4.69;71.81;94645.59;5096272;28;20551;-70
2021/03/10 05:16:45;;;;;;;42.40;27.80;;;;;;;4.65;71.64;94643.69;5108755;28;20195;-76
2021/03/10 05:19:12;;;;;;;45.38;27.88;;;;;;;4.57;71.93;94659.56;5092101;28;20187;-70
2021/03/10 05:21:38;;;;;;;46.35;29.02;;;;;;;4.51;72.90;94655.25;5102169;28;20205;-70
2021/03/10 05:24:05;;;;;;;47.25;28.60;;;;;;;4.65;72.17;94657.41;5112458;28;20195;-70
2021/03/10 05:26:31;;;;;;;47.50;29.63;;;;;;;4.76;72.32;94641.06;5112268;28;20187;-72
2021/03/10 05:28:58;;;;;;;44.92;28.13;;;;;;;4.93;71.96;94647.19;5105225;28;20233;-70
2021/03/10 05:31:24;;;;;;;44.72;29.63;;;;;;;4.76;72.25;94648.84;5091466;28;20214;-70
2021/03/10 05:33:52;;;;;;;45.10;28.67;;;;;;;4.85;71.79;94647.50;5091406;28;20538;-74
2021/03/10 05:36:21;;;;;;;42.28;27.83;;;;;;;5.00;71.36;94640.06;5091115;28;20198;-72
2021/03/10 05:38:50;;;;;;;42.80;26.25;;;;;;;4.86;71.50;94646.50;5091666;28;20195;-70
2021/03/10 05:41:17;;;;;;;39.63;26.30;;;;;;;4.86;71.66;94633.53;5101113;28;20209;-71
2021/03/10 05:43:44;;;;;;;39.97;26.88;;;;;;;4.96;71.23;94648.53;5111750;28;20195;-69
2021/03/10 05:46:11;;;;;;;41.78;27.88;;;;;;;4.74;71.85;94640.53;5110198;28;20190;-70
2021/03/10 05:48:39;;;;;;;43.00;26.95;;;;;;;4.88;71.72;94641.88;5091514;28;20191;-69
2021/03/10 05:51:07;;;;;;;41.67;26.90;;;;;;;4.68;71.95;94630.25;5091415;28;20203;-68
2021/03/10 05:53:38;;;;;;;42.28;28.75;;;;;;;4.86;71.68;94635.31;5107538;28;20244;-70
2021/03/10 05:56:05;;;;;;;40.45;27.00;;;;;;;4.71;71.96;94635.78;5103894;28;20205;-71
2021/03/10 05:58:32;;;;;;;59.63;37.67;;;;;;;4.71;72.45;94646.16;5090079;28;20191;-69
2021/03/10 06:00:58;;;;;;;51.42;33.20;;;;;;;4.56;73.10;94643.19;5090885;28;20191;-71
2021/03/10 06:03:25;;;;;;;67.28;43.38;;;;;;;4.73;72.87;94644.13;5090929;28;20282;-70
2021/03/10 06:06:01;;;;;;;42.10;27.65;;;;;;;4.41;72.85;94650.66;5091005;28;20227;-71
2021/03/10 06:08:35;;;;;;;47.15;29.63;;;;;;;4.60;72.94;94639.16;5090958;28;20209;-68
2021/03/10 06:11:02;;;;;;;45.25;29.85;;;;;;;4.46;73.62;94647.38;5090907;28;20204;-68
2021/03/10 06:13:32;;;;;;;47.75;31.90;;;;;;;4.54;73.24;94645.25;5091060;28;20191;-70
2021/03/10 06:16:01;;;;;;;50.80;32.63;;;;;;;4.37;73.62;94649.50;5090932;28;20673;-71
2021/03/10 06:18:34;;;;;;;42.70;28.88;;;;;;;4.43;73.99;94650.41;5090978;28;20200;-69
2021/03/10 06:21:13;;;;;;;48.75;30.73;;;;;;;4.66;74.47;94640.06;5093672;28;20216;-67
2021/03/10 06:23:54;;;;;;;78.22;53.28;;;;;;;4.76;73.56;94646.25;5091254;28;20195;-74
2021/03/10 06:26:26;;;;;;;63.10;39.58;;;;;;;4.86;73.32;94643.91;5089944;28;20260;-70
2021/03/10 06:28:54;;;;;;;47.22;30.58;;;;;;;4.68;73.21;94630.25;5090285;28;20290;-70
2021/03/10 06:31:23;;;;;;;51.65;31.48;;;;;;;4.55;73.22;94620.88;5087940;28;20233;-70
2021/03/10 06:34:12;;;;;;;49.17;32.72;;;;;;;4.71;73.25;94640.97;5087207;28;20222;-68
2021/03/10 06:36:48;;;;;;;49.00;33.42;;;;;;;4.76;72.99;94638.47;5086327;28;20194;-68
2021/03/10 06:39:29;;;;;;;48.17;31.50;;;;;;;4.66;73.02;94633.06;5088099;28;20205;-68
2021/03/10 06:41:57;;;;;;;50.65;31.08;;;;;;;4.63;72.98;94632.72;5088562;28;20230;-69
2021/03/10 06:44:29;;;;;;;50.45;31.95;;;;;;;4.59;73.31;94616.81;5087652;28;20696;-72
2021/03/10 06:47:01;;;;;;;50.30;32.42;;;;;;;4.80;73.25;94639.59;5089195;28;20700;-70
2021/03/10 06:49:30;;;;;;;50.85;33.20;;;;;;;4.44;73.79;94645.00;5089921;28;20217;-68
2021/03/10 06:52:02;;;;;;;49.47;33.25;;;;;;;4.50;74.67;94649.31;5090450;28;20229;-69
2021/03/10 06:54:30;;;;;;;50.88;34.00;;;;;;;4.62;74.10;94642.31;5089628;28;20201;-67
2021/03/10 06:56:59;;;;;;;47.95;32.50;;;;;;;4.71;73.43;94640.16;5090250;28;20291;-68
2021/03/10 06:59:26;;;;;;;53.78;35.95;;;;;;;4.64;74.16;94648.06;5089735;28;20606;-67
2021/03/10 07:01:53;;;;;;;52.58;34.72;;;;;;;4.60;73.66;94657.31;5089187;28;20198;-67
2021/03/10 07:04:20;;;;;;;53.30;34.42;;;;;;;4.64;73.73;94658.44;5089446;28;20226;-68
2021/03/10 07:06:49;;;;;;;53.03;35.90;;;;;;;4.58;74.22;94661.94;5090196;28;20223;-67
2021/03/10 07:09:17;;;;;;;55.83;35.63;;;;;;;4.73;73.82;94659.69;5090044;28;20657;-68
2021/03/10 07:11:45;;;;;;;57.63;34.75;;;;;;;4.64;73.41;94666.22;5090186;28;20833;-70
2021/03/10 07:14:14;;;;;;;52.90;33.83;;;;;;;4.60;73.70;94649.53;5090270;28;20222;-68
2021/03/10 07:16:40;;;;;;;50.53;32.25;;;;;;;4.54;74.00;94660.81;5090298;28;20207;-72
2021/03/10 07:19:12;;;;;;;48.13;33.97;;;;;;;4.80;73.10;94652.59;5089861;28;20227;-69
2021/03/10 07:21:50;;;;;;;53.10;35.92;;;;;;;4.72;73.70;94663.31;5089894;28;20226;-69
2021/03/10 07:24:41;;;;;;;55.22;36.05;;;;;;;4.72;73.73;94668.50;5089516;28;20201;-70
2021/03/10 07:27:09;;;;;;;54.72;36.60;;;;;;;4.75;73.71;94673.25;5090095;28;20187;-67
2021/03/10 07:29:37;;;;;;;58.47;36.20;;;;;;;4.76;73.84;94659.25;5089510;28;20203;-70
2021/03/10 07:32:06;;;;;;;61.08;38.58;;;;;;;4.71;74.08;94671.31;5090054;28;20294;-70
2021/03/10 07:34:34;;;;;;;56.47;36.33;;;;;;;4.67;73.72;94660.59;5089158;28;20195;-70
2021/03/10 07:37:17;;;;;;;56.20;36.10;;;;;;;4.63;73.86;94675.03;5090156;28;20241;-70
2021/03/10 07:39:44;;;;;;;61.25;37.15;;;;;;;4.39;74.19;94657.84;5089249;28;20717;-70
2021/03/10 07:42:17;;;;;;;61.88;37.67;;;;;;;4.62;73.81;94673.44;5090315;28;20202;-70
2021/03/10 07:44:57;;;;;;;60.20;37.55;;;;;;;4.68;73.56;94662.19;5089148;28;20195;-71
2021/03/10 07:47:23;;;;;;;57.35;36.28;;;;;;;4.77;73.53;94649.66;5090359;28;20199;-71
2021/03/10 07:50:01;;;;;;;58.75;37.95;;;;;;;4.82;72.99;94663.53;5089241;28;20196;-70
2021/03/10 07:52:28;;;;;;;59.53;37.70;;;;;;;4.88;72.73;94662.66;5089725;28;20242;-70
2021/03/10 07:54:57;;;;;;;60.92;38.55;;;;;;;4.83;73.09;94659.16;5089064;28;20688;-69
2021/03/10 07:57:24;;;;;;;55.55;35.63;;;;;;;4.83;72.78;94653.94;5089975;28;20715;-68
2021/03/10 07:59:57;;;;;;;59.53;37.50;;;;;;;4.78;73.54;94657.22;5092723;28;20191;-71
2021/03/10 08:02:26;;;;;;;57.83;36.78;;;;;;;4.81;74.13;94661.97;5093278;28;20290;-69
2021/03/10 08:04:59;;;;;;;57.92;37.88;;;;;;;4.64;73.98;94648.06;5092616;28;20206;-67
2021/03/10 08:07:29;;;;;;;56.58;37.20;;;;;;;4.59;73.47;94647.97;5093528;28;20210;-69
2021/03/10 08:09:57;;;;;;;57.72;37.53;;;;;;;4.64;73.21;94665.44;5093403;28;20223;-70
2021/03/10 08:12:34;;;;;;;55.00;36.60;;;;;;;4.58;74.11;94656.75;5093308;28;20215;-69
2021/03/10 08:15:03;;;;;;;55.28;36.15;;;;;;;4.61;73.50;94658.09;5092592;28;20198;-70
2021/03/10 08:17:30;;;;;;;58.90;38.95;;;;;;;4.69;73.53;94648.19;5093418;28;20199;-70
2021/03/10 08:20:02;;;;;;;60.58;38.40;;;;;;;4.62;73.46;94647.50;5092585;28;20195;-69
2021/03/10 08:22:30;;;;;;;53.22;35.92;;;;;;;4.72;73.42;94650.34;5093035;28;20215;-69
2021/03/10 08:24:59;;;;;;;56.85;36.42;;;;;;;4.87;73.34;94647.31;5092418;28;20742;-69
2021/03/10 08:27:33;;;;;;;58.97;36.83;;;;;;;4.76;73.27;94651.44;5093570;28;20205;-70
2021/03/10 08:30:01;;;;;;;55.63;35.67;;;;;;;4.76;73.04;94645.50;5094553;28;20623;-68
2021/03/10 08:32:30;;;;;;;49.40;33.10;;;;;;;4.72;73.21;94647.75;5094466;28;20231;-69
2021/03/10 08:35:10;;;;;;;59.25;35.85;;;;;;;4.83;73.17;94641.78;5093255;28;20226;-69
2021/03/10 08:37:41;;;;;;;54.33;35.97;;;;;;;4.76;73.33;94641.06;5092940;28;20205;-68
2021/03/10 08:40:10;;;;;;;55.05;37.05;;;;;;;4.76;73.72;94633.28;5092326;28;20195;-68
2021/03/10 08:42:43;;;;;;;55.58;35.47;;;;;;;4.83;73.74;94644.38;5093235;28;20195;-70
2021/03/10 08:45:22;;;;;;;51.95;35.00;;;;;;;4.64;74.27;94640.28;5091720;28;20299;-69
2021/03/10 08:48:03;;;;;;;53.67;35.78;;;;;;;4.79;74.17;94638.03;5093036;28;20600;-68
2021/03/10 08:50:33;;;;;;;55.35;35.80;;;;;;;4.88;73.07;94636.69;5090459;28;20210;-69
2021/03/10 08:53:02;;;;;;;55.03;36.42;;;;;;;4.82;73.63;94641.97;5092628;28;20321;-70
2021/03/10 08:55:30;;;;;;;57.30;37.15;;;;;;;4.95;73.88;94646.94;5090413;28;20203;-69
2021/03/10 08:58:06;;;;;;;54.85;35.47;;;;;;;4.93;73.78;94639.38;5092550;28;20203;-69
2021/03/10 09:00:33;;;;;;;49.72;34.90;;;;;;;4.90;74.38;94639.84;5091712;28;20286;-69
2021/03/10 09:03:16;;;;;;;48.92;34.10;;;;;;;5.05;73.03;94644.59;5091263;28;20191;-70
2021/03/10 09:05:46;;;;;;;50.28;34.78;;;;;;;4.96;73.04;94646.72;5091781;28;20219;-68
2021/03/10 09:08:21;;;;;;;49.42;34.63;;;;;;;5.07;73.47;94632.94;5091338;28;20234;-69
2021/03/10 09:10:50;;;;;;;53.38;35.00;;;;;;;5.28;72.60;94635.97;5088824;28;20252;-69
2021/03/10 09:13:35;;;;;;;57.13;35.88;;;;;;;5.44;72.06;94635.28;5092284;28;20202;-69
2021/03/10 09:16:09;;;;;;;51.28;34.95;;;;;;;5.29;72.60;94632.34;5090126;28;20245;-70
2021/03/10 09:18:42;;;;;;;51.83;35.28;;;;;;;5.16;72.94;94641.97;5090263;28;20260;-71
2021/03/10 09:21:09;;;;;;;46.47;32.85;;;;;;;5.27;73.34;94639.59;5089964;28;20202;-69
2021/03/10 09:23:42;;;;;;;49.92;34.63;;;;;;;5.15;73.29;94616.22;5090620;28;20199;-69
2021/03/10 09:26:09;;;;;;;48.25;33.80;;;;;;;5.24;73.39;94634.84;5090087;28;20301;-70
2021/03/10 09:28:41;;;;;;;47.60;32.30;;;;;;;5.37;73.12;94644.97;5092158;28;20195;-70
2021/03/10 09:31:18;;;;;;;45.60;31.65;;;;;;;5.41;72.80;94646.09;5090048;28;20716;-69
2021/03/10 09:33:52;;;;;;;45.78;31.30;;;;;;;5.46;72.80;94654.00;5090632;28;20218;-70
2021/03/10 09:36:26;;;;;;;40.35;30.17;;;;;;;5.50;72.82;94657.72;5090485;28;20667;-69
2021/03/10 09:38:59;;;;;;;44.15;30.55;;;;;;;5.41;72.67;94651.31;5092473;28;20206;-68
2021/03/10 09:41:36;;;;;;;41.15;29.30;;;;;;;5.42;72.87;94658.09;5091583;28;20203;-68
2021/03/10 09:44:08;;;;;;;41.25;30.60;;;;;;;5.25;73.39;94652.00;5090286;28;20209;-69
2021/03/10 09:46:41;;;;;;;39.83;28.45;;;;;;;5.31;72.71;94651.09;5089691;28;20206;-68
2021/03/10 09:49:10;;;;;;;38.13;28.17;;;;;;;5.31;72.71;94645.91;5089852;28;20218;-68
2021/03/10 09:51:48;;;;;;;40.22;28.65;;;;;;;5.28;72.09;94638.56;5090937;28;20233;-68
2021/03/10 09:54:21;;;;;;;42.75;28.05;;;;;;;5.23;72.95;94639.25;5090965;28;20191;-69
2021/03/10 09:56:58;;;;;;;39.67;28.00;;;;;;;5.08;72.71;94650.13;5090100;28;20222;-69
2021/03/10 09:59:38;;;;;;;40.35;26.98;;;;;;;5.03;73.50;94639.63;5089011;28;20208;-68
2021/03/10 10:02:14;;;;;;;41.90;27.23;;;;;;;4.97;73.16;94639.72;5090462;28;20306;-69
2021/03/10 10:04:43;;;;;;;41.10;27.42;;;;;;;5.07;73.59;94625.16;5089159;28;20320;-68
2021/03/10 10:07:12;;;;;;;40.53;27.77;;;;;;;5.15;73.47;94622.22;5090768;28;20755;-69
2021/03/10 10:10:04;;;;;;;41.42;28.50;;;;;;;5.25;73.39;94641.63;5087006;28;20209;-69
2021/03/10 10:12:53;;;;;;;41.83;27.33;;;;;;;5.32;73.58;94637.09;5090803;28;20231;-69
2021/03/10 10:15:30;;;;;;;40.65;27.13;;;;;;;5.07;74.04;94630.34;5089100;28;20279;-68
2021/03/10 10:18:02;;;;;;;41.35;27.38;;;;;;;5.14;73.66;94640.63;5089911;28;20195;-70
2021/03/10 10:20:33;;;;;;;43.40;27.42;;;;;;;4.99;74.49;94641.09;5088817;28;20256;-69
2021/03/10 10:23:04;;;;;;;41.35;27.35;;;;;;;4.97;75.09;94640.53;5090863;28;20600;-69
2021/03/10 10:25:37;;;;;;;35.95;25.33;;;;;;;4.96;74.74;94640.75;5088597;28;20297;-69
2021/03/10 10:28:08;;;;;;;38.85;26.60;;;;;;;4.92;74.90;94648.22;5090794;28;20207;-68
2021/03/10 10:30:36;;;;;;;41.72;28.30;;;;;;;5.11;74.61;94649.66;5090068;28;20210;-69
2021/03/10 10:33:05;;;;;;;39.97;26.90;;;;;;;5.13;74.56;94637.22;5089443;28;20678;-69
2021/03/10 10:35:37;;;;;;;37.47;25.75;;;;;;;5.05;74.54;94642.75;5088707;28;20211;-70
2021/03/10 10:38:07;;;;;;;35.38;24.63;;;;;;;5.22;74.20;94652.47;5089515;28;20209;-69
2021/03/10 10:40:36;;;;;;;34.97;24.35;;;;;;;5.18;74.26;94646.16;5089622;28;20194;-70
2021/03/10 10:43:09;;;;;;;40.42;26.75;;;;;;;5.03;74.79;94654.41;5089446;28;20318;-69
2021/03/10 10:45:37;;;;;;;37.45;25.70;;;;;;;5.09;74.48;94654.28;5088604;28;20236;-68
2021/03/10 10:48:05;;;;;;;35.72;24.77;;;;;;;5.09;74.08;94649.09;5089258;28;20310;-69
2021/03/10 10:50:50;;;;;;;35.72;24.38;;;;;;;5.03;73.80;94644.81;5088295;28;20213;-69
2021/03/10 10:53:19;;;;;;;30.33;22.27;;;;;;;5.07;73.62;94651.13;5088991;28;20706;-69
2021/03/10 10:55:47;;;;;;;27.70;19.40;;;;;;;4.95;74.45;94647.75;5088234;28;20198;-69
2021/03/10 10:58:13;;;;;;;23.27;17.38;;;;;;;4.92;74.13;94643.00;5089199;28;20207;-69
2021/03/10 11:00:41;;;;;;;38.70;22.45;;;;;;;4.89;74.55;94648.63;5088191;28;20199;-70
2021/03/10 11:03:11;;;;;;;40.20;25.48;;;;;;;4.89;74.50;94643.44;5089296;28;20664;-70
2021/03/10 11:05:45;;;;;;;43.58;27.08;;;;;;;4.80;75.30;94650.00;5089737;28;20272;-70
2021/03/10 11:08:13;;;;;;;60.42;36.50;;;;;;;4.66;75.56;94635.66;5090493;28;20336;-70
2021/03/10 11:10:40;;;;;;;50.83;31.35;;;;;;;4.81;75.29;94643.81;5088735;28;20199;-69
2021/03/10 11:13:11;;;;;;;36.75;24.85;;;;;;;4.76;74.91;94651.44;5089339;28;20235;-69
2021/03/10 11:15:48;;;;;;;28.30;19.20;;;;;;;4.68;74.73;94641.44;5088754;28;20195;-69
2021/03/10 11:18:29;;;;;;;25.45;15.85;;;;;;;4.73;74.55;94651.91;5089352;28;20223;-70
2021/03/10 11:20:56;;;;;;;12.55;9.55;;;;;;;4.55;73.80;94654.59;5088310;28;20199;-70
2021/03/10 11:23:24;;;;;;;11.27;8.02;;;;;;;4.55;73.19;94669.38;5090320;28;20195;-70
2021/03/10 11:25:51;;;;;;;12.57;8.50;;;;;;;4.37;73.63;94659.88;5089209;28;20599;-71
2021/03/10 11:28:17;;;;;;;11.30;8.65;;;;;;;4.34;72.90;94649.97;5090791;28;20202;-71
2021/03/10 11:30:45;;;;;;;13.32;8.93;;;;;;;4.19;73.37;94657.34;5088437;28;20653;-70
2021/03/10 11:33:12;;;;;;;13.10;9.32;;;;;;;4.25;72.94;94650.50;5089483;28;20223;-70
2021/03/10 11:35:44;;;;;;;13.32;9.27;;;;;;;4.21;73.31;94642.38;5093241;28;20967;-70
2021/03/10 11:38:10;;;;;;;13.98;9.82;;;;;;;4.03;73.43;94647.63;5094028;28;20207;-70